Time;durP1;ratioP1;P1;durP2;ratioP2;P2;SDS_P1;SDS_P2;PMS_P1;PMS_P2;Temp;Humidity;BMP_temperature;BMP_pressure;BME280_temperature;BME280_humidity;BME280_pressure;Samples;Min_cycle;Max_cycle;Signal;HPM_P1;HPM_P2
2024/01/12 00:00:47;;;;;;;14.20;4.00;;;;;;;;;;5054393;28;20151;-68
2024/01/12 00:03:13;;;;;;;11.40;3.97;;;;;;;;;;5054155;28;20036;-68
2024/01/12 00:05:40;;;;;;;11.30;3.58;;;;;;;;;;5055270;28;20705;-68
2024/01/12 00:08:06;;;;;;;10.15;4.30;;;;;;;;;;5055641;28;20519;-68
2024/01/12 00:10:32;;;;;;;16.50;4.28;;;;;;;;;;5053319;28;20028;-68
2024/01/12 00:12:58;;;;;;;9.20;3.42;;;;;;;;;;5054154;28;20072;-68
2024/01/12 00:15:24;;;;;;;12.95;4.38;;;;;;;;;;5053998;28;20033;-68
2024/01/12 00:17:50;;;;;;;11.57;4.40;;;;;;;;;;5054474;28;21804;-68
2024/01/12 00:20:16;;;;;;;9.48;3.70;;;;;;;;;;5053337;28;20483;-68
2024/01/12 00:22:43;;;;;;;10.90;4.60;;;;;;;;;;5053924;28;20463;-68
2024/01/12 00:25:09;;;;;;;16.73;4.50;;;;;;;;;;5054460;28;20043;-68
2024/01/12 00:27:35;;;;;;;10.57;4.50;;;;;;;;;;5064459;28;20770;-68
2024/01/12 00:30:01;;;;;;;14.93;4.88;;;;;;;;;;5054245;28;20033;-68
2024/01/12 00:32:27;;;;;;;12.07;4.55;;;;;;;;;;5053804;28;20185;-68
2024/01/12 00:34:53;;;;;;;13.13;4.68;;;;;;;;;;5054240;28;20032;-68
2024/01/12 00:37:19;;;;;;;12.38;4.88;;;;;;;;;;5053939;28;20031;-68
2024/01/12 00:39:45;;;;;;;11.43;4.45;;;;;;;;;;5053384;28;20063;-68
2024/01/12 00:42:11;;;;;;;21.58;6.22;;;;;;;;;;5053138;28;20121;-68
2024/01/12 00:44:37;;;;;;;12.50;4.60;;;;;;;;;;5053350;28;20707;-68
2024/01/12 00:47:03;;;;;;;12.38;4.57;;;;;;;;;;5053028;28;20677;-68
2024/01/12 00:49:29;;;;;;;15.55;4.40;;;;;;;;;;5052511;28;20040;-68
2024/01/12 00:51:55;;;;;;;13.75;4.63;;;;;;;;;;5052199;28;20119;-68
2024/01/12 00:54:26;;;;;;;11.48;4.13;;;;;;;;;;5063980;28;20152;-68
2024/01/12 00:56:52;;;;;;;8.85;3.85;;;;;;;;;;5053867;28;20041;-68
2024/01/12 00:59:19;;;;;;;13.68;3.97;;;;;;;;;;5052526;28;20033;-68
2024/01/12 01:01:45;;;;;;;11.52;3.90;;;;;;;;;;5052951;28;20101;-68
2024/01/12 01:04:11;;;;;;;12.80;3.63;;;;;;;;;;5052618;28;20146;-68
2024/01/12 01:06:37;;;;;;;8.10;3.42;;;;;;;;;;5050376;28;20487;-68
2024/01/12 01:09:03;;;;;;;10.93;3.70;;;;;;;;;;5048824;28;20698;-68
2024/01/12 01:11:30;;;;;;;11.30;3.63;;;;;;;;;;5051371;28;20033;-68
2024/01/12 01:13:56;;;;;;;8.98;4.00;;;;;;;;;;5053158;28;20174;-68
2024/01/12 01:16:23;;;;;;;14.32;4.50;;;;;;;;;;5052956;28;20157;-68
2024/01/12 01:18:49;;;;;;;7.30;3.30;;;;;;;;;;5053687;28;20109;-68
2024/01/12 01:21:16;;;;;;;13.82;4.05;;;;;;;;;;5052249;28;20036;-68
2024/01/12 01:23:42;;;;;;;8.15;3.38;;;;;;;;;;5052618;28;20048;-68
2024/01/12 01:26:08;;;;;;;9.00;3.47;;;;;;;;;;5051408;28;20036;-68
2024/01/12 01:28:34;;;;;;;8.68;3.15;;;;;;;;;;5051524;28;20047;-68
2024/01/12 01:31:00;;;;;;;9.23;3.38;;;;;;;;;;5051777;28;20048;-68
2024/01/12 01:33:26;;;;;;;10.82;3.47;;;;;;;;;;5051438;28;20115;-68
2024/01/12 01:35:52;;;;;;;12.15;4.88;;;;;;;;;;5052756;28;20039;-68
2024/01/12 01:38:18;;;;;;;9.82;3.83;;;;;;;;;;5052509;28;20035;-68
2024/01/12 01:40:45;;;;;;;7.45;3.40;;;;;;;;;;5049805;28;20040;-68
2024/01/12 01:43:11;;;;;;;12.18;3.92;;;;;;;;;;5052171;28;20036;-68
2024/01/12 01:45:38;;;;;;;7.25;3.33;;;;;;;;;;5052020;28;20036;-68
2024/01/12 01:48:05;;;;;;;11.60;3.75;;;;;;;;;;5051918;28;20040;-68
2024/01/12 01:50:31;;;;;;;10.70;3.25;;;;;;;;;;5051434;28;20125;-68
2024/01/12 01:52:57;;;;;;;10.88;3.55;;;;;;;;;;5051354;28;20036;-68
2024/01/12 01:55:23;;;;;;;10.50;3.35;;;;;;;;;;5052251;28;20039;-68
2024/01/12 01:57:50;;;;;;;12.55;3.50;;;;;;;;;;5051389;28;20086;-68
2024/01/12 02:00:18;;;;;;;6.93;3.20;;;;;;;;;;5052211;28;20039;-68
2024/01/12 02:02:44;;;;;;;11.85;4.47;;;;;;;;;;5049463;28;20039;-68
2024/01/12 02:05:11;;;;;;;8.82;3.50;;;;;;;;;;5051257;28;20025;-68
2024/01/12 02:07:38;;;;;;;8.43;3.60;;;;;;;;;;5052230;28;20036;-68
2024/01/12 02:10:04;;;;;;;8.85;2.92;;;;;;;;;;5051261;28;20040;-68
2024/01/12 02:12:30;;;;;;;9.93;3.20;;;;;;;;;;5050757;28;20052;-68
2024/01/12 02:14:57;;;;;;;7.38;3.20;;;;;;;;;;5051823;28;20650;-68
2024/01/12 02:17:23;;;;;;;6.50;3.10;;;;;;;;;;5050566;28;20089;-68
2024/01/12 02:19:49;;;;;;;12.82;3.67;;;;;;;;;;5050955;28;20032;-68
2024/01/12 02:22:15;;;;;;;8.30;3.70;;;;;;;;;;5051038;28;20043;-68
2024/01/12 02:24:41;;;;;;;9.77;3.47;;;;;;;;;;5051604;28;20043;-68
2024/01/12 02:27:07;;;;;;;8.27;3.20;;;;;;;;;;5050242;28;20031;-68
2024/01/12 02:29:33;;;;;;;9.60;3.60;;;;;;;;;;5052128;28;20047;-68
2024/01/12 02:31:59;;;;;;;9.48;2.95;;;;;;;;;;5050571;28;20045;-68
2024/01/12 02:34:25;;;;;;;9.05;3.25;;;;;;;;;;5050261;28;20043;-68
2024/01/12 02:36:51;;;;;;;10.05;3.25;;;;;;;;;;5050665;28;20063;-68
2024/01/12 02:39:17;;;;;;;9.65;3.47;;;;;;;;;;5050875;28;20020;-68
2024/01/12 02:41:43;;;;;;;8.35;3.05;;;;;;;;;;5051582;28;20032;-68
2024/01/12 02:44:09;;;;;;;9.90;3.10;;;;;;;;;;5050721;28;20168;-68
2024/01/12 02:46:35;;;;;;;9.63;3.28;;;;;;;;;;5042034;28;20142;-68
2024/01/12 02:49:02;;;;;;;9.52;3.17;;;;;;;;;;5049926;28;21029;-68
2024/01/12 02:51:28;;;;;;;9.30;3.45;;;;;;;;;;5050391;28;20032;-68
2024/01/12 02:53:54;;;;;;;8.75;3.78;;;;;;;;;;5050734;28;20487;-68
2024/01/12 02:56:20;;;;;;;10.73;2.90;;;;;;;;;;5064909;28;20040;-68
2024/01/12 02:58:46;;;;;;;10.27;3.47;;;;;;;;;;5050384;28;20454;-68
2024/01/12 03:01:12;;;;;;;13.07;3.92;;;;;;;;;;5048240;28;20476;-68
2024/01/12 03:03:39;;;;;;;8.80;2.85;;;;;;;;;;5048530;28;20124;-68
2024/01/12 03:06:06;;;;;;;9.30;3.17;;;;;;;;;;5049898;28;20032;-68
2024/01/12 03:08:32;;;;;;;9.88;2.90;;;;;;;;;;5049843;28;20039;-68
2024/01/12 03:10:58;;;;;;;7.80;2.88;;;;;;;;;;5064741;28;20040;-68
2024/01/12 03:13:24;;;;;;;11.48;3.38;;;;;;;;;;5049256;28;20053;-68
2024/01/12 03:15:50;;;;;;;7.32;2.78;;;;;;;;;;5051201;28;20037;-68
2024/01/12 03:18:16;;;;;;;14.10;3.50;;;;;;;;;;5048471;28;20025;-68
2024/01/12 03:20:42;;;;;;;8.02;3.13;;;;;;;;;;5049834;28;20037;-68
2024/01/12 03:23:08;;;;;;;8.98;2.60;;;;;;;;;;5049337;28;20043;-68
2024/01/12 03:25:34;;;;;;;11.13;3.33;;;;;;;;;;5049088;28;20040;-68
2024/01/12 03:28:00;;;;;;;9.43;3.15;;;;;;;;;;5049385;28;20048;-68
2024/01/12 03:30:26;;;;;;;11.45;3.00;;;;;;;;;;5049450;28;20048;-68
2024/01/12 03:32:52;;;;;;;12.15;3.15;;;;;;;;;;5064657;28;20090;-68
2024/01/12 03:35:18;;;;;;;14.82;3.28;;;;;;;;;;5050137;28;20031;-68
2024/01/12 03:37:45;;;;;;;7.55;3.00;;;;;;;;;;5066455;28;20036;-68
2024/01/12 03:40:11;;;;;;;14.75;3.15;;;;;;;;;;5050195;28;20052;-68
2024/01/12 03:42:38;;;;;;;10.80;3.13;;;;;;;;;;5048275;28;20826;-68
2024/01/12 03:45:04;;;;;;;11.85;3.47;;;;;;;;;;5049453;28;20059;-68
2024/01/12 03:47:30;;;;;;;12.50;2.95;;;;;;;;;;5050027;28;20885;-68
2024/01/12 03:49:56;;;;;;;8.73;3.40;;;;;;;;;;5050062;28;21284;-68
2024/01/12 03:52:22;;;;;;;10.27;2.97;;;;;;;;;;5048793;28;20037;-68
2024/01/12 03:54:49;;;;;;;9.60;3.28;;;;;;;;;;5049240;28;20123;-68
2024/01/12 03:57:15;;;;;;;8.90;3.17;;;;;;;;;;5042054;28;20821;-68
2024/01/12 03:59:41;;;;;;;10.45;3.17;;;;;;;;;;5048970;28;20051;-68
2024/01/12 04:02:07;;;;;;;10.90;3.30;;;;;;;;;;5049197;28;20075;-68
2024/01/12 04:04:33;;;;;;;9.13;3.42;;;;;;;;;;5049629;28;20036;-68
2024/01/12 04:07:00;;;;;;;9.40;3.10;;;;;;;;;;5049214;28;20055;-68
2024/01/12 04:09:26;;;;;;;10.75;3.60;;;;;;;;;;5050395;28;20037;-68
2024/01/12 04:11:52;;;;;;;16.27;3.83;;;;;;;;;;5046614;28;20652;-68
2024/01/12 04:14:18;;;;;;;11.70;3.33;;;;;;;;;;5046941;28;21060;-68
2024/01/12 04:16:44;;;;;;;12.57;3.70;;;;;;;;;;5047811;28;20033;-68
2024/01/12 04:19:10;;;;;;;10.40;3.33;;;;;;;;;;5046615;28;20028;-68
2024/01/12 04:21:36;;;;;;;8.48;3.30;;;;;;;;;;5047123;28;20120;-68
2024/01/12 04:24:02;;;;;;;9.07;2.95;;;;;;;;;;5047574;28;20068;-68
2024/01/12 04:26:28;;;;;;;9.27;3.40;;;;;;;;;;5047404;28;21040;-68
2024/01/12 04:28:55;;;;;;;13.63;4.15;;;;;;;;;;5048451;28;20086;-68
2024/01/12 04:31:21;;;;;;;10.15;3.78;;;;;;;;;;5049484;28;20047;-68
2024/01/12 04:33:47;;;;;;;10.60;3.70;;;;;;;;;;5050228;28;20067;-68
2024/01/12 04:36:13;;;;;;;9.43;3.20;;;;;;;;;;5053282;28;20105;-68
2024/01/12 04:38:39;;;;;;;10.13;3.53;;;;;;;;;;5053090;28;20043;-68
2024/01/12 04:41:05;;;;;;;11.25;3.03;;;;;;;;;;5053855;28;20036;-68
2024/01/12 04:43:31;;;;;;;9.27;3.10;;;;;;;;;;5053105;28;20555;-68
2024/01/12 04:45:58;;;;;;;8.57;3.15;;;;;;;;;;5052719;28;20395;-68
2024/01/12 04:48:24;;;;;;;7.43;2.80;;;;;;;;;;5053236;28;20090;-68
2024/01/12 04:50:50;;;;;;;12.00;3.20;;;;;;;;;;5051264;28;20037;-68
2024/01/12 04:53:16;;;;;;;9.38;2.90;;;;;;;;;;5053324;28;20024;-68
2024/01/12 04:55:42;;;;;;;11.02;3.75;;;;;;;;;;5051742;28;20206;-68
2024/01/12 04:58:08;;;;;;;13.45;3.72;;;;;;;;;;5051545;28;21845;-68
2024/01/12 05:00:34;;;;;;;9.18;3.30;;;;;;;;;;5053155;28;20605;-68
2024/01/12 05:03:01;;;;;;;13.15;2.90;;;;;;;;;;5052809;28;20443;-68
2024/01/12 05:05:27;;;;;;;8.60;2.55;;;;;;;;;;5053101;28;20032;-68
2024/01/12 05:07:53;;;;;;;17.33;4.30;;;;;;;;;;5052528;28;20043;-68
2024/01/12 05:10:19;;;;;;;11.38;3.05;;;;;;;;;;5052708;28;20120;-68
2024/01/12 05:12:45;;;;;;;12.57;3.42;;;;;;;;;;5053545;28;20071;-68
2024/01/12 05:15:11;;;;;;;12.15;3.13;;;;;;;;;;5053912;28;20037;-68
2024/01/12 05:17:37;;;;;;;12.48;3.00;;;;;;;;;;5053069;28;20043;-68
2024/01/12 05:20:06;;;;;;;11.98;3.17;;;;;;;;;;5063776;28;20037;-68
2024/01/12 05:22:33;;;;;;;9.52;3.13;;;;;;;;;;5052985;28;20028;-68
2024/01/12 05:24:59;;;;;;;9.85;3.08;;;;;;;;;;5053190;28;20047;-68
2024/01/12 05:27:26;;;;;;;10.82;3.63;;;;;;;;;;5066971;28;20060;-68
2024/01/12 05:29:52;;;;;;;17.67;3.65;;;;;;;;;;5050578;28;20147;-68
2024/01/12 05:32:18;;;;;;;14.88;4.60;;;;;;;;;;5052444;28;20120;-68
2024/01/12 05:34:44;;;;;;;15.80;3.60;;;;;;;;;;5053062;28;20083;-68
2024/01/12 05:37:10;;;;;;;19.40;4.10;;;;;;;;;;5052923;28;20037;-68
2024/01/12 05:39:36;;;;;;;18.10;4.18;;;;;;;;;;5064319;28;20036;-68
2024/01/12 05:42:02;;;;;;;13.38;4.28;;;;;;;;;;5052824;28;20037;-68
2024/01/12 05:44:29;;;;;;;16.80;3.92;;;;;;;;;;5052607;28;20051;-68
2024/01/12 05:46:55;;;;;;;11.43;3.15;;;;;;;;;;5052898;28;20040;-68
2024/01/12 05:49:21;;;;;;;12.90;3.70;;;;;;;;;;5051992;28;20039;-68
2024/01/12 05:51:48;;;;;;;19.95;4.45;;;;;;;;;;5052673;28;20125;-68
2024/01/12 05:54:14;;;;;;;12.93;4.97;;;;;;;;;;5068823;28;20466;-68
2024/01/12 05:56:40;;;;;;;15.57;4.75;;;;;;;;;;5053101;28;20054;-68
2024/01/12 05:59:07;;;;;;;20.02;4.10;;;;;;;;;;5051442;28;20480;-68
2024/01/12 06:01:33;;;;;;;13.93;4.15;;;;;;;;;;5052614;28;20061;-68
2024/01/12 06:03:59;;;;;;;14.60;4.40;;;;;;;;;;5053388;28;20985;-68
2024/01/12 06:06:25;;;;;;;14.20;3.95;;;;;;;;;;5061505;28;20087;-68
2024/01/12 06:08:51;;;;;;;11.95;4.30;;;;;;;;;;5051883;28;20060;-68
2024/01/12 06:11:17;;;;;;;12.48;4.00;;;;;;;;;;5051808;28;20021;-68
2024/01/12 06:13:43;;;;;;;17.15;5.30;;;;;;;;;;5051519;28;20098;-68
2024/01/12 06:16:09;;;;;;;20.00;4.50;;;;;;;;;;5052634;28;20064;-68
2024/01/12 06:18:36;;;;;;;16.05;4.55;;;;;;;;;;5051592;28;21044;-68
2024/01/12 06:21:02;;;;;;;15.45;3.60;;;;;;;;;;5051809;28;20449;-68
2024/01/12 06:23:28;;;;;;;17.67;4.45;;;;;;;;;;5050662;28;20032;-68
2024/01/12 06:25:54;;;;;;;15.13;4.32;;;;;;;;;;5050382;28;20056;-68
2024/01/12 06:28:20;;;;;;;17.95;4.60;;;;;;;;;;5050056;28;21824;-68
2024/01/12 06:30:46;;;;;;;19.20;4.53;;;;;;;;;;5049782;28;20440;-68
2024/01/12 06:33:16;;;;;;;24.88;4.68;;;;;;;;;;5051198;28;20701;-68
2024/01/12 06:35:42;;;;;;;16.73;4.22;;;;;;;;;;5050383;28;20684;-68
2024/01/12 06:38:10;;;;;;;11.68;4.22;;;;;;;;;;5050648;28;20033;-68
2024/01/12 06:40:36;;;;;;;23.88;4.90;;;;;;;;;;5048507;28;20028;-68
2024/01/12 06:43:02;;;;;;;17.58;4.57;;;;;;;;;;5050796;28;20044;-68
2024/01/12 06:45:28;;;;;;;13.23;4.35;;;;;;;;;;5050658;28;20037;-68
2024/01/12 06:47:54;;;;;;;13.75;4.03;;;;;;;;;;5049461;28;20119;-68
2024/01/12 06:50:20;;;;;;;18.33;4.22;;;;;;;;;;5064930;28;20056;-68
2024/01/12 06:52:46;;;;;;;13.48;3.78;;;;;;;;;;5050109;28;20044;-68
2024/01/12 06:55:12;;;;;;;13.07;3.72;;;;;;;;;;5050162;28;20054;-68
2024/01/12 06:57:38;;;;;;;18.13;4.22;;;;;;;;;;5048868;28;20043;-68
2024/01/12 07:00:06;;;;;;;13.00;3.40;;;;;;;;;;5049987;28;20024;-68
2024/01/12 07:02:33;;;;;;;14.55;3.30;;;;;;;;;;5050507;28;20048;-68
2024/01/12 07:05:00;;;;;;;14.77;3.78;;;;;;;;;;5049068;28;20460;-68
2024/01/12 07:07:26;;;;;;;12.82;3.47;;;;;;;;;;5050634;28;20036;-68
2024/01/12 07:09:52;;;;;;;19.92;3.78;;;;;;;;;;5049088;28;20070;-68
2024/01/12 07:12:18;;;;;;;19.73;4.03;;;;;;;;;;5050232;28;20032;-68
2024/01/12 07:14:44;;;;;;;15.68;3.72;;;;;;;;;;5049889;28;20123;-68
2024/01/12 07:17:10;;;;;;;15.75;3.17;;;;;;;;;;5048788;28;20032;-68
2024/01/12 07:19:36;;;;;;;20.05;3.40;;;;;;;;;;5049793;28;20028;-68
2024/01/12 07:22:02;;;;;;;22.92;3.72;;;;;;;;;;5050148;28;20395;-68
2024/01/12 07:24:28;;;;;;;17.10;3.58;;;;;;;;;;5049165;28;20170;-68
2024/01/12 07:26:55;;;;;;;13.88;3.35;;;;;;;;;;5048096;28;20077;-68
2024/01/12 07:29:22;;;;;;;14.30;3.70;;;;;;;;;;5060993;28;20058;-68
2024/01/12 07:31:49;;;;;;;16.90;3.20;;;;;;;;;;5048894;28;20090;-68
2024/01/12 07:34:17;;;;;;;14.00;3.00;;;;;;;;;;5050018;28;20063;-68
2024/01/12 07:36:43;;;;;;;17.33;3.50;;;;;;;;;;5049292;28;20033;-68
2024/01/12 07:39:09;;;;;;;17.35;3.03;;;;;;;;;;5049457;28;20043;-68
2024/01/12 07:41:35;;;;;;;17.23;3.08;;;;;;;;;;5049962;28;20090;-68
2024/01/12 07:44:01;;;;;;;8.93;2.15;;;;;;;;;;5049171;28;20037;-68
2024/01/12 07:46:28;;;;;;;13.35;2.75;;;;;;;;;;5049604;28;20032;-68
2024/01/12 07:48:56;;;;;;;10.15;2.38;;;;;;;;;;5049054;28;20033;-68
2024/01/12 07:51:22;;;;;;;12.27;2.33;;;;;;;;;;5049444;28;20037;-68
2024/01/12 07:53:48;;;;;;;13.88;2.50;;;;;;;;;;5047846;28;20025;-68
2024/01/12 07:56:15;;;;;;;19.38;3.35;;;;;;;;;;5048694;28;20764;-66
2024/01/12 07:58:41;;;;;;;12.95;2.67;;;;;;;;;;5049266;28;20044;-66
2024/01/12 08:01:12;;;;;;;24.08;3.10;;;;;;;;;;5050140;28;20036;-66
2024/01/12 08:03:38;;;;;;;15.55;2.80;;;;;;;;;;5049866;28;20067;-66
2024/01/12 08:06:04;;;;;;;11.88;2.47;;;;;;;;;;5049304;28;20155;-67
2024/01/12 08:08:30;;;;;;;16.38;2.67;;;;;;;;;;5049509;28;20071;-67
2024/01/12 08:10:57;;;;;;;17.83;3.05;;;;;;;;;;5051549;28;20071;-68
2024/01/12 08:13:24;;;;;;;18.05;3.50;;;;;;;;;;5051481;28;21700;-68
2024/01/12 08:15:50;;;;;;;14.48;2.65;;;;;;;;;;5052303;28;20037;-68
2024/01/12 08:18:16;;;;;;;15.65;2.45;;;;;;;;;;5050944;28;20060;-68
2024/01/12 08:20:42;;;;;;;16.38;2.67;;;;;;;;;;5051168;28;20705;-67
2024/01/12 08:23:08;;;;;;;17.20;3.17;;;;;;;;;;5051821;28;20043;-67
2024/01/12 08:25:34;;;;;;;21.63;2.47;;;;;;;;;;5053675;28;20451;-67
2024/01/12 08:28:00;;;;;;;11.98;2.50;;;;;;;;;;5051538;28;20032;-68
2024/01/12 08:30:26;;;;;;;12.20;2.35;;;;;;;;;;5052524;28;20384;-68
2024/01/12 08:32:52;;;;;;;13.60;2.85;;;;;;;;;;5051552;28;20031;-68
2024/01/12 08:35:18;;;;;;;17.02;2.67;;;;;;;;;;5051216;28;20119;-67
2024/01/12 08:37:44;;;;;;;8.85;2.00;;;;;;;;;;5052893;28;20029;-67
2024/01/12 08:40:11;;;;;;;14.63;2.25;;;;;;;;;;5051486;28;20039;-67
2024/01/12 08:42:39;;;;;;;10.50;2.38;;;;;;;;;;5053447;28;20180;-67
2024/01/12 08:45:05;;;;;;;15.57;3.13;;;;;;;;;;5053171;28;20066;-67
2024/01/12 08:47:31;;;;;;;12.25;1.75;;;;;;;;;;5051857;28;20123;-67
2024/01/12 08:49:58;;;;;;;10.65;2.25;;;;;;;;;;5050950;28;20037;-67
2024/01/12 08:52:24;;;;;;;17.45;2.58;;;;;;;;;;5052742;28;20036;-67
2024/01/12 08:54:50;;;;;;;13.93;2.85;;;;;;;;;;5050421;28;20028;-67
2024/01/12 08:57:16;;;;;;;18.42;3.05;;;;;;;;;;5051589;28;20063;-67
2024/01/12 08:59:42;;;;;;;15.95;2.35;;;;;;;;;;5051625;28;20720;-67
2024/01/12 09:02:08;;;;;;;11.98;2.42;;;;;;;;;;5049705;28;20053;-67
2024/01/12 09:04:35;;;;;;;13.23;2.25;;;;;;;;;;5050763;28;20812;-68
2024/01/12 09:07:01;;;;;;;9.77;2.28;;;;;;;;;;5067426;28;20149;-67
2024/01/12 09:09:27;;;;;;;14.75;2.83;;;;;;;;;;5053221;28;20036;-67
2024/01/12 09:11:54;;;;;;;15.15;2.60;;;;;;;;;;5053095;28;20109;-67
2024/01/12 09:14:20;;;;;;;13.27;2.83;;;;;;;;;;5052991;28;20064;-67
2024/01/12 09:16:46;;;;;;;16.23;2.47;;;;;;;;;;5052408;28;20037;-67
2024/01/12 09:19:12;;;;;;;17.38;2.95;;;;;;;;;;5052678;28;20106;-67
2024/01/12 09:21:38;;;;;;;13.88;2.67;;;;;;;;;;5053655;28;20041;-67
2024/01/12 09:24:05;;;;;;;17.00;2.53;;;;;;;;;;5053148;28;20017;-67
2024/01/12 09:26:31;;;;;;;20.17;3.25;;;;;;;;;;5054019;28;20028;-67
2024/01/12 09:28:57;;;;;;;12.38;2.50;;;;;;;;;;5053521;28;20534;-67
2024/01/12 09:31:23;;;;;;;14.27;2.88;;;;;;;;;;5053324;28;20431;-67
2024/01/12 09:33:51;;;;;;;17.85;3.20;;;;;;;;;;5053341;28;20035;-67
2024/01/12 09:36:17;;;;;;;24.30;2.88;;;;;;;;;;5053280;28;20032;-67
2024/01/12 09:38:43;;;;;;;14.88;2.10;;;;;;;;;;5053241;28;20024;-67
2024/01/12 09:41:10;;;;;;;17.35;3.05;;;;;;;;;;5048189;28;20036;-67
2024/01/12 09:43:36;;;;;;;12.48;2.00;;;;;;;;;;5053499;28;20079;-67
2024/01/12 09:46:05;;;;;;;13.50;2.83;;;;;;;;;;5052701;28;20032;-67
2024/01/12 09:48:31;;;;;;;15.65;2.63;;;;;;;;;;5053767;28;20566;-67
2024/01/12 09:50:57;;;;;;;16.58;2.63;;;;;;;;;;5053863;28;20133;-67
2024/01/12 09:53:23;;;;;;;14.45;2.60;;;;;;;;;;5053816;28;20149;-67
2024/01/12 09:55:49;;;;;;;13.32;2.35;;;;;;;;;;5053886;28;20483;-67
2024/01/12 09:58:21;;;;;;;8.90;1.65;;;;;;;;;;5053068;28;20040;-67
2024/01/12 10:00:48;;;;;;;15.43;2.70;;;;;;;;;;5052904;28;20067;-67
2024/01/12 10:03:17;;;;;;;16.45;2.30;;;;;;;;;;5053120;28;21714;-67
2024/01/12 10:05:44;;;;;;;13.55;2.70;;;;;;;;;;5053760;28;20040;-67
2024/01/12 10:08:10;;;;;;;11.77;1.80;;;;;;;;;;5053300;28;20063;-68
2024/01/12 10:10:36;;;;;;;14.60;2.53;;;;;;;;;;5053499;28;20110;-68
2024/01/12 10:13:03;;;;;;;9.70;2.38;;;;;;;;;;5047357;28;21271;-68
2024/01/12 10:15:29;;;;;;;12.35;2.50;;;;;;;;;;5054157;28;20043;-68
2024/01/12 10:17:56;;;;;;;12.73;2.63;;;;;;;;;;5054000;28;20017;-68
2024/01/12 10:20:22;;;;;;;8.90;2.08;;;;;;;;;;5054270;28;20042;-68
2024/01/12 10:22:55;;;;;;;8.52;1.70;;;;;;;;;;5054143;28;20044;-68
2024/01/12 10:25:21;;;;;;;12.05;1.95;;;;;;;;;;5053784;28;20093;-67
2024/01/12 10:27:54;;;;;;;12.40;2.55;;;;;;;;;;5052276;28;20085;-67
2024/01/12 10:30:20;;;;;;;11.18;1.80;;;;;;;;;;5052993;28;20029;-67
2024/01/12 10:32:53;;;;;;;12.85;1.80;;;;;;;;;;5052343;28;20115;-67
2024/01/12 10:35:22;;;;;;;13.05;2.67;;;;;;;;;;5052179;28;20020;-67
2024/01/12 10:37:49;;;;;;;10.00;1.88;;;;;;;;;;5048597;28;20107;-67
2024/01/12 10:40:18;;;;;;;14.63;1.85;;;;;;;;;;5049607;28;20037;-67
2024/01/12 10:42:51;;;;;;;13.20;2.53;;;;;;;;;;5050886;28;20541;-67
2024/01/12 10:45:20;;;;;;;13.43;2.40;;;;;;;;;;5051270;28;20075;-67
2024/01/12 10:47:48;;;;;;;15.48;2.75;;;;;;;;;;5050148;28;20024;-67
2024/01/12 10:50:16;;;;;;;14.95;2.38;;;;;;;;;;5050799;28;20097;-67
2024/01/12 10:53:00;;;;;;;15.38;2.25;;;;;;;;;;5051593;28;20048;-67
2024/01/12 10:55:31;;;;;;;19.92;2.92;;;;;;;;;;5052980;28;20039;-67
2024/01/12 10:57:57;;;;;;;16.08;2.70;;;;;;;;;;5052314;28;20035;-67
2024/01/12 11:00:24;;;;;;;12.98;2.63;;;;;;;;;;5052793;28;20083;-67
2024/01/12 11:02:51;;;;;;;17.33;3.00;;;;;;;;;;5052965;28;20239;-67
2024/01/12 11:05:17;;;;;;;11.32;2.03;;;;;;;;;;5054623;28;20036;-67
2024/01/12 11:07:44;;;;;;;12.80;2.33;;;;;;;;;;5053925;28;20446;-67
2024/01/12 11:10:11;;;;;;;17.60;2.67;;;;;;;;;;5053438;28;20036;-67
2024/01/12 11:12:38;;;;;;;19.83;3.13;;;;;;;;;;5052692;28;20045;-67
2024/01/12 11:15:07;;;;;;;17.58;2.70;;;;;;;;;;5068331;28;20035;-67
2024/01/12 11:17:37;;;;;;;18.48;2.92;;;;;;;;;;5053436;28;20025;-67
2024/01/12 11:20:09;;;;;;;15.32;2.70;;;;;;;;;;5052535;28;20043;-67
2024/01/12 11:22:36;;;;;;;14.57;2.33;;;;;;;;;;5053375;28;20028;-67
2024/01/12 11:25:02;;;;;;;23.38;3.35;;;;;;;;;;5052230;28;20036;-68
2024/01/12 11:27:34;;;;;;;16.52;3.10;;;;;;;;;;5051580;28;20037;-68
2024/01/12 11:30:01;;;;;;;29.67;5.03;;;;;;;;;;5052420;28;20050;-68
2024/01/12 11:32:31;;;;;;;15.52;2.53;;;;;;;;;;5052632;28;20470;-68
2024/01/12 11:35:13;;;;;;;13.80;2.60;;;;;;;;;;5053968;28;20111;-67
2024/01/12 11:37:39;;;;;;;19.17;2.75;;;;;;;;;;5052931;28;20567;-67
2024/01/12 11:40:09;;;;;;;16.45;2.40;;;;;;;;;;5051495;28;21457;-67
2024/01/12 11:42:47;;;;;;;22.05;3.47;;;;;;;;;;5052353;28;20546;-67
2024/01/12 11:45:13;;;;;;;17.05;3.42;;;;;;;;;;5055059;28;20086;-67
2024/01/12 11:47:40;;;;;;;23.38;3.25;;;;;;;;;;5055082;28;20099;-67
2024/01/12 11:50:07;;;;;;;17.60;2.92;;;;;;;;;;5069975;28;20032;-67
2024/01/12 11:52:33;;;;;;;19.25;3.15;;;;;;;;;;5055421;28;20040;-67
2024/01/12 11:54:59;;;;;;;14.80;2.35;;;;;;;;;;5056031;28;20027;-67
2024/01/12 11:57:26;;;;;;;17.60;3.25;;;;;;;;;;5055300;28;20090;-67
2024/01/12 11:59:55;;;;;;;14.35;2.55;;;;;;;;;;5055716;28;20020;-67
2024/01/12 12:02:23;;;;;;;19.15;2.53;;;;;;;;;;5054459;28;20033;-67
2024/01/12 12:04:51;;;;;;;16.13;3.30;;;;;;;;;;5055456;28;20110;-67
2024/01/12 12:07:18;;;;;;;43.80;4.38;;;;;;;;;;5056040;28;20028;-67
2024/01/12 12:09:46;;;;;;;23.67;2.78;;;;;;;;;;5054870;28;20020;-67
2024/01/12 12:12:12;;;;;;;17.20;3.20;;;;;;;;;;5054400;28;20498;-67
2024/01/12 12:14:38;;;;;;;14.13;2.10;;;;;;;;;;5055219;28;20772;-67
2024/01/12 12:17:04;;;;;;;23.88;3.55;;;;;;;;;;5054554;28;20078;-67
2024/01/12 12:19:30;;;;;;;16.30;2.55;;;;;;;;;;5052247;28;20029;-67
2024/01/12 12:21:57;;;;;;;19.02;3.53;;;;;;;;;;5054706;28;20161;-67
2024/01/12 12:24:23;;;;;;;19.98;3.22;;;;;;;;;;5053476;28;20078;-67
2024/01/12 12:26:49;;;;;;;13.82;2.63;;;;;;;;;;5054517;28;20063;-67
2024/01/12 12:29:19;;;;;;;20.30;2.70;;;;;;;;;;5054516;28;20032;-67
2024/01/12 12:31:45;;;;;;;16.85;2.83;;;;;;;;;;5053656;28;20803;-67
2024/01/12 12:34:11;;;;;;;19.60;2.80;;;;;;;;;;5054852;28;20110;-68
2024/01/12 12:36:37;;;;;;;15.35;3.22;;;;;;;;;;5054922;28;20024;-68
2024/01/12 12:39:04;;;;;;;19.77;2.88;;;;;;;;;;5055101;28;20112;-68
2024/01/12 12:41:31;;;;;;;16.90;2.65;;;;;;;;;;5054337;28;20484;-68
2024/01/12 12:43:58;;;;;;;16.42;2.55;;;;;;;;;;5054373;28;20036;-68
2024/01/12 12:46:26;;;;;;;21.77;2.58;;;;;;;;;;5054615;28;20044;-68
2024/01/12 12:48:56;;;;;;;17.63;2.65;;;;;;;;;;5053250;28;20032;-68
2024/01/12 12:51:22;;;;;;;14.85;2.67;;;;;;;;;;5053574;28;20790;-68
2024/01/12 12:53:48;;;;;;;21.40;3.88;;;;;;;;;;5053678;28;20492;-68
2024/01/12 12:56:14;;;;;;;22.20;3.35;;;;;;;;;;5052759;28;20379;-68
2024/01/12 12:58:40;;;;;;;19.58;2.88;;;;;;;;;;5054392;28;20039;-68
2024/01/12 13:01:06;;;;;;;18.70;3.85;;;;;;;;;;5053093;28;20056;-67
2024/01/12 13:03:32;;;;;;;18.75;3.40;;;;;;;;;;5053644;28;20040;-68
2024/01/12 13:05:58;;;;;;;12.80;2.78;;;;;;;;;;5070457;28;20029;-68
2024/01/12 13:08:24;;;;;;;20.55;3.30;;;;;;;;;;5054223;28;20036;-68
2024/01/12 13:10:52;;;;;;;17.90;2.47;;;;;;;;;;5051783;28;20052;-68
2024/01/12 13:13:18;;;;;;;12.52;2.53;;;;;;;;;;5053304;28;20055;-68
2024/01/12 13:15:44;;;;;;;13.05;2.65;;;;;;;;;;5052588;28;20021;-68
2024/01/12 13:18:10;;;;;;;16.75;2.90;;;;;;;;;;5052457;28;20032;-68
2024/01/12 13:20:36;;;;;;;32.25;3.35;;;;;;;;;;5054083;28;20041;-68
2024/01/12 13:23:03;;;;;;;19.17;2.97;;;;;;;;;;5052889;28;20036;-68
2024/01/12 13:25:30;;;;;;;23.17;3.55;;;;;;;;;;5052066;28;20024;-68
2024/01/12 13:27:56;;;;;;;22.42;2.67;;;;;;;;;;5052675;28;20033;-68
2024/01/12 13:30:22;;;;;;;19.13;2.67;;;;;;;;;;5052635;28;20042;-68
2024/01/12 13:32:48;;;;;;;17.75;2.78;;;;;;;;;;5053610;28;20035;-68
2024/01/12 13:35:14;;;;;;;15.98;2.65;;;;;;;;;;5053567;28;20498;-68
2024/01/12 13:37:40;;;;;;;15.50;2.53;;;;;;;;;;5064483;28;20031;-68
2024/01/12 13:40:07;;;;;;;13.70;2.17;;;;;;;;;;5052726;28;20153;-68
2024/01/12 13:42:33;;;;;;;14.20;2.65;;;;;;;;;;5069189;28;20036;-68
2024/01/12 13:45:00;;;;;;;15.98;1.90;;;;;;;;;;5047421;28;20069;-68
2024/01/12 13:47:26;;;;;;;11.15;2.05;;;;;;;;;;5051918;28;20132;-68
2024/01/12 13:49:52;;;;;;;16.80;2.20;;;;;;;;;;5052331;28;20032;-68
2024/01/12 13:52:18;;;;;;;26.70;3.38;;;;;;;;;;5052103;28;20066;-68
2024/01/12 13:54:45;;;;;;;18.15;2.65;;;;;;;;;;5052490;28;20054;-68
2024/01/12 13:57:11;;;;;;;14.02;1.85;;;;;;;;;;5053900;28;20068;-68
2024/01/12 13:59:37;;;;;;;11.60;1.80;;;;;;;;;;5051801;28;20078;-68
2024/01/12 14:02:04;;;;;;;8.85;1.60;;;;;;;;;;5067721;28;20032;-68
2024/01/12 14:04:31;;;;;;;11.57;1.80;;;;;;;;;;5068499;28;20074;-68
2024/01/12 14:06:57;;;;;;;6.07;1.75;;;;;;;;;;5067643;28;20115;-68
2024/01/12 14:09:23;;;;;;;9.27;1.75;;;;;;;;;;5052312;28;20150;-68
2024/01/12 14:11:52;;;;;;;4.85;1.20;;;;;;;;;;5052084;28;20044;-68
2024/01/12 14:14:18;;;;;;;5.80;1.27;;;;;;;;;;5052331;28;20040;-68
2024/01/12 14:16:44;;;;;;;12.20;1.40;;;;;;;;;;5052286;28;20056;-68
2024/01/12 14:19:11;;;;;;;6.10;1.50;;;;;;;;;;5052701;28;20039;-68
2024/01/12 14:21:37;;;;;;;5.78;1.20;;;;;;;;;;5053500;28;21253;-68
2024/01/12 14:24:03;;;;;;;4.60;1.00;;;;;;;;;;5053129;28;20101;-68
2024/01/12 14:26:30;;;;;;;8.13;1.10;;;;;;;;;;5052455;28;20454;-68
2024/01/12 14:28:56;;;;;;;8.55;1.13;;;;;;;;;;5064764;28;20036;-68